createdAt,value
2018-05-17T00:00:55.826Z,81.02
2018-05-17T00:01:55.964Z,80.83
2018-05-17T00:02:56.098Z,80.45
2018-05-17T00:03:56.254Z,80.16
2018-05-17T00:04:56.391Z,80.55
2018-05-17T00:05:56.524Z,80.74
2018-05-17T00:06:56.670Z,80.64
2018-05-17T00:07:56.812Z,80.45
2018-05-17T00:08:56.951Z,79.97
2018-05-17T00:09:57.089Z,80.26
2018-05-17T00:10:57.225Z,79.78
2018-05-17T00:11:57.385Z,79.59
2018-05-17T00:12:57.521Z,79.49
2018-05-17T00:13:57.662Z,79.39
2018-05-17T00:14:57.807Z,79.11
2018-05-17T00:15:57.970Z,79.30
2018-05-17T00:16:58.112Z,79.30
2018-05-17T00:17:58.252Z,79.30
2018-05-17T00:18:58.392Z,79.30
2018-05-17T00:19:58.551Z,78.72
2018-05-17T00:20:58.697Z,78.25
2018-05-17T00:21:58.831Z,78.59
2018-05-17T00:22:58.968Z,78.78
2018-05-17T00:23:59.143Z,78.92
2018-05-17T00:24:59.281Z,78.97
2018-05-17T00:25:59.421Z,78.88
2018-05-17T00:26:59.577Z,78.53
2018-05-17T00:27:59.712Z,78.30
2018-05-17T00:28:59.850Z,78.30
2018-05-17T00:29:59.989Z,78.20
2018-05-17T00:31:00.144Z,78.49
2018-05-17T00:32:00.283Z,78.40
2018-05-17T00:33:00.426Z,78.30
2018-05-17T00:34:00.567Z,78.02
2018-05-17T00:35:00.723Z,77.50
2018-05-17T00:36:00.858Z,77.34
2018-05-17T00:37:00.998Z,77.82
2018-05-17T00:38:01.145Z,77.63
2018-05-17T00:39:01.308Z,78.40
2018-05-17T00:40:01.437Z,78.30
2018-05-17T00:41:01.567Z,77.25
2018-05-17T00:42:01.735Z,78.02
2018-05-17T00:43:01.869Z,78.11
2018-05-17T00:44:02.008Z,78.02
2018-05-17T00:45:02.153Z,77.34
2018-05-17T00:46:02.317Z,77.63
2018-05-17T00:47:02.452Z,78.02
2018-05-17T00:48:02.591Z,78.49
2018-05-17T00:49:02.733Z,78.20
2018-05-17T00:50:02.879Z,77.44
2018-05-17T00:51:03.017Z,77.44
2018-05-17T00:52:03.158Z,77.63
2018-05-17T00:53:03.294Z,77.25
2018-05-17T00:54:03.434Z,76.19
2018-05-17T00:55:03.574Z,76.86
2018-05-17T00:56:03.713Z,76.39
2018-05-17T00:57:03.850Z,76.67
2018-05-17T00:58:03.990Z,76.67
2018-05-17T00:59:04.124Z,76.00
2018-05-17T01:00:04.263Z,76.29
2018-05-17T01:01:04.395Z,76.15
2018-05-17T01:02:04.542Z,75.87
2018-05-17T01:03:04.687Z,76.44
2018-05-17T01:04:04.840Z,76.64
2018-05-17T01:05:04.990Z,76.44
2018-05-17T01:06:05.133Z,76.96
2018-05-17T01:07:05.281Z,77.59
2018-05-17T01:08:05.451Z,76.44
2018-05-17T01:09:05.594Z,76.57
2018-05-17T01:10:05.731Z,77.25
2018-05-17T01:11:05.868Z,76.57
2018-05-17T01:12:06.004Z,76.67
2018-05-17T01:13:06.143Z,76.77
2018-05-17T01:14:06.283Z,77.25
2018-05-17T01:15:06.418Z,76.39
2018-05-17T01:16:06.558Z,75.81
2018-05-17T01:17:06.702Z,76.00
2018-05-17T01:18:06.845Z,76.19
2018-05-17T01:19:06.991Z,76.67
2018-05-17T01:20:07.122Z,76.39
2018-05-17T01:21:07.263Z,76.15
2018-05-17T01:22:07.402Z,76.73
2018-05-17T01:23:07.538Z,76.25
2018-05-17T01:24:07.693Z,76.25
2018-05-17T01:25:07.829Z,76.82
2018-05-17T01:26:07.981Z,77.31
2018-05-17T01:27:08.118Z,77.50
2018-05-17T01:28:08.284Z,77.02
2018-05-17T01:29:08.418Z,76.77
2018-05-17T01:30:08.552Z,76.92
2018-05-17T01:31:08.692Z,76.54
2018-05-17T01:32:08.854Z,76.15
2018-05-17T01:33:08.993Z,76.06
2018-05-17T01:34:09.132Z,76.44
2018-05-17T01:35:09.263Z,76.64
2018-05-17T01:36:09.416Z,77.21
2018-05-17T01:37:09.552Z,76.73
2018-05-17T01:38:09.696Z,76.54
2018-05-17T01:39:09.857Z,76.35
2018-05-17T01:40:09.986Z,76.64
2018-05-17T01:41:10.121Z,76.15
2018-05-17T01:42:10.333Z,76.64
2018-05-17T01:43:10.416Z,76.77
2018-05-17T01:44:10.553Z,76.92
2018-05-17T01:45:10.686Z,76.92
2018-05-17T01:46:10.818Z,76.92
2018-05-17T01:47:10.952Z,76.54
2018-05-17T01:48:11.087Z,76.54
2018-05-17T01:49:11.228Z,76.35
2018-05-17T01:50:11.369Z,75.68
2018-05-17T01:51:11.505Z,75.87
2018-05-17T01:52:11.647Z,76.15
2018-05-17T01:53:11.793Z,76.54
2018-05-17T01:54:11.927Z,76.92
2018-05-17T01:55:12.191Z,76.44
2018-05-17T01:56:12.249Z,76.92
2018-05-17T01:57:12.408Z,76.25
2018-05-17T01:58:12.543Z,76.44
2018-05-17T01:59:12.679Z,76.64
2018-05-17T02:00:12.908Z,75.77
2018-05-17T02:01:12.985Z,75.39
2018-05-17T02:02:13.118Z,75.48
2018-05-17T02:03:13.913Z,75.39
2018-05-17T02:04:13.408Z,75.68
2018-05-17T02:05:13.547Z,75.77
2018-05-17T02:06:13.682Z,75.20
2018-05-17T02:07:13.822Z,75.39
2018-05-17T02:08:13.957Z,75.58
2018-05-17T02:09:14.101Z,75.33
2018-05-17T02:10:14.242Z,74.62
2018-05-17T02:11:14.377Z,74.72
2018-05-17T02:12:14.521Z,75.10
2018-05-17T02:13:14.669Z,75.39
2018-05-17T02:14:14.808Z,75.48
2018-05-17T02:15:15.000Z,75.68
2018-05-17T02:16:15.142Z,75.39
2018-05-17T02:17:15.288Z,76.25
2018-05-17T02:18:15.914Z,75.68
2018-05-17T02:19:15.579Z,75.39
2018-05-17T02:20:15.697Z,74.43
2018-05-17T02:21:15.846Z,75.39
2018-05-17T02:22:15.990Z,75.87
2018-05-17T02:23:16.125Z,75.20
2018-05-17T02:24:16.266Z,75.29
2018-05-17T02:25:16.405Z,74.62
2018-05-17T02:26:16.545Z,74.62
2018-05-17T02:27:16.687Z,75.29
2018-05-17T02:28:16.821Z,74.91
2018-05-17T02:29:16.961Z,74.72
2018-05-17T02:30:17.095Z,75.20
2018-05-17T02:31:17.244Z,75.20
2018-05-17T02:32:17.370Z,75.10
2018-05-17T02:33:17.506Z,75.39
2018-05-17T02:34:17.646Z,75.77
2018-05-17T02:35:17.785Z,75.87
2018-05-17T02:36:17.928Z,75.68
2018-05-17T02:37:18.068Z,75.96
2018-05-17T02:38:18.208Z,76.15
2018-05-17T02:39:18.347Z,75.58
2018-05-17T02:40:18.489Z,75.48
2018-05-17T02:41:18.657Z,75.29
2018-05-17T02:42:18.791Z,75.29
2018-05-17T02:43:18.927Z,75.39
2018-05-17T02:44:19.086Z,74.82
2018-05-17T02:45:19.231Z,74.82
2018-05-17T02:46:19.366Z,75.29
2018-05-17T02:47:19.501Z,74.33
2018-05-17T02:48:19.661Z,74.52
2018-05-17T02:49:19.798Z,74.33
2018-05-17T02:50:19.942Z,74.43
2018-05-17T02:51:20.078Z,74.37
2018-05-17T02:52:20.209Z,74.43
2018-05-17T02:53:20.352Z,74.43
2018-05-17T02:54:20.522Z,74.33
2018-05-17T02:55:20.656Z,74.24
2018-05-17T02:56:20.793Z,73.95
2018-05-17T02:57:20.950Z,74.33
2018-05-17T02:58:21.081Z,74.24
2018-05-17T02:59:21.220Z,74.62
2018-05-17T03:00:21.363Z,74.91
2018-05-17T03:01:21.498Z,74.52
2018-05-17T03:02:21.639Z,74.43
2018-05-17T03:03:21.776Z,74.62
2018-05-17T03:04:21.935Z,74.62
2018-05-17T03:05:22.059Z,74.82
2018-05-17T03:06:22.231Z,74.43
2018-05-17T03:07:22.366Z,73.38
2018-05-17T03:08:22.569Z,74.24
2018-05-17T03:09:22.581Z,74.62
2018-05-17T03:10:22.722Z,74.33
2018-05-17T03:11:22.859Z,74.62
2018-05-17T03:12:23.013Z,74.05
2018-05-17T03:13:23.153Z,74.43
2018-05-17T03:14:24.179Z,74.24
2018-05-17T03:15:23.485Z,74.43
2018-05-17T03:16:23.621Z,74.15
2018-05-17T03:17:23.764Z,73.09
2018-05-17T03:18:23.897Z,73.19
2018-05-17T03:19:24.068Z,73.57
2018-05-17T03:20:24.201Z,73.47
2018-05-17T03:21:24.347Z,74.33
2018-05-17T03:22:24.481Z,74.72
2018-05-17T03:23:24.656Z,74.62
2018-05-17T03:24:24.799Z,74.43
2018-05-17T03:25:24.934Z,74.52
2018-05-17T03:26:25.138Z,74.24
2018-05-17T03:27:25.152Z,73.95
2018-05-17T03:28:25.295Z,73.57
2018-05-17T03:29:25.438Z,73.28
2018-05-17T03:30:25.576Z,72.52
2018-05-17T03:31:25.716Z,72.52
2018-05-17T03:32:25.857Z,72.99
2018-05-17T03:33:25.998Z,73.19
2018-05-17T03:34:26.201Z,73.19
2018-05-17T03:35:26.280Z,73.66
2018-05-17T03:36:26.422Z,73.86
2018-05-17T03:37:26.561Z,73.19
2018-05-17T03:38:26.702Z,73.38
2018-05-17T03:39:26.839Z,73.66
2018-05-17T03:40:26.983Z,73.66
2018-05-17T03:41:27.121Z,74.30
2018-05-17T03:42:27.271Z,74.24
2018-05-17T03:43:27.402Z,74.11
2018-05-17T03:44:27.548Z,74.15
2018-05-17T03:45:27.691Z,73.82
2018-05-17T03:46:27.832Z,74.30
2018-05-17T03:47:27.975Z,74.58
2018-05-17T03:48:28.121Z,73.72
2018-05-17T03:49:28.262Z,73.05
2018-05-17T03:50:28.400Z,72.96
2018-05-17T03:51:28.541Z,72.38
2018-05-17T03:52:28.682Z,72.48
2018-05-17T03:53:28.815Z,72.77
2018-05-17T03:54:28.966Z,73.05
2018-05-17T03:55:29.102Z,73.72
2018-05-17T03:56:29.246Z,72.77
2018-05-17T03:57:29.386Z,73.15
2018-05-17T03:58:29.557Z,72.96
2018-05-17T03:59:29.703Z,73.24
2018-05-17T04:00:29.845Z,73.72
2018-05-17T04:01:29.999Z,73.34
2018-05-17T04:02:30.142Z,73.44
2018-05-17T04:03:30.274Z,73.15
2018-05-17T04:04:30.417Z,73.63
2018-05-17T04:05:30.558Z,72.67
2018-05-17T04:06:30.698Z,72.77
2018-05-17T04:07:30.853Z,72.38
2018-05-17T04:08:31.042Z,73.34
2018-05-17T04:09:31.131Z,73.44
2018-05-17T04:10:31.290Z,73.05
2018-05-17T04:11:31.421Z,72.96
2018-05-17T04:12:31.557Z,72.86
2018-05-17T04:13:31.740Z,73.24
2018-05-17T04:14:31.874Z,73.15
2018-05-17T04:15:32.013Z,73.05
2018-05-17T04:18:04.889Z,74.20
2018-05-17T04:19:04.897Z,74.01
2018-05-17T04:20:05.041Z,73.63
2018-05-17T04:21:05.169Z,74.40
2018-05-17T04:22:05.342Z,74.30
2018-05-17T04:23:05.464Z,74.49
2018-05-17T04:24:05.603Z,75.07
2018-05-17T04:25:05.739Z,74.97
2018-05-17T04:26:05.903Z,74.68
2018-05-17T04:27:06.040Z,73.15
2018-05-17T04:28:06.178Z,72.67
2018-05-17T04:29:06.321Z,72.00
2018-05-17T04:30:06.467Z,72.86
2018-05-17T04:31:06.605Z,71.91
2018-05-17T04:32:06.749Z,72.29
2018-05-17T04:33:06.878Z,72.58
2018-05-17T04:34:07.041Z,71.91
2018-05-17T04:35:07.174Z,72.48
2018-05-17T04:36:07.313Z,71.42
2018-05-17T04:37:07.454Z,71.62
2018-05-17T04:38:07.609Z,71.04
2018-05-17T04:39:07.748Z,70.95
2018-05-17T04:40:07.887Z,71.46
2018-05-17T04:41:08.031Z,70.85
2018-05-17T04:42:08.174Z,71.23
2018-05-17T04:43:08.314Z,71.52
2018-05-17T04:44:08.448Z,71.14
2018-05-17T04:45:08.593Z,71.46
2018-05-17T04:46:08.726Z,71.23
2018-05-17T04:47:08.955Z,71.23
2018-05-17T04:48:09.012Z,70.95
2018-05-17T04:49:09.152Z,70.56
2018-05-17T04:50:09.290Z,71.33
2018-05-17T04:51:09.431Z,71.42
2018-05-17T04:52:09.575Z,70.85
2018-05-17T04:53:09.713Z,71.33
2018-05-17T04:54:09.848Z,71.14
2018-05-17T04:55:09.987Z,71.04
2018-05-17T04:56:10.134Z,71.14
2018-05-17T04:57:10.275Z,71.33
2018-05-17T04:58:10.412Z,71.23
2018-05-17T04:59:10.548Z,70.85
2018-05-17T05:00:10.695Z,70.56
2018-05-17T05:01:10.833Z,69.70
2018-05-17T05:02:10.974Z,69.89
2018-05-17T05:03:11.117Z,69.89
2018-05-17T05:04:11.254Z,70.56
2018-05-17T05:05:11.403Z,69.89
2018-05-17T05:06:11.539Z,69.89
2018-05-17T05:07:11.682Z,70.37
2018-05-17T05:08:11.823Z,70.66
2018-05-17T05:09:12.047Z,70.37
2018-05-17T05:11:44.516Z,70.18
2018-05-17T05:12:44.649Z,70.66
2018-05-17T05:13:44.814Z,71.52
2018-05-17T05:14:44.932Z,71.04
2018-05-17T05:15:45.073Z,70.56
2018-05-17T05:16:45.226Z,70.37
2018-05-17T05:17:45.365Z,70.09
2018-05-17T05:18:45.501Z,69.51
2018-05-17T05:19:45.651Z,70.09
2018-05-17T05:20:45.803Z,69.70
2018-05-17T05:21:45.940Z,70.09
2018-05-17T05:22:46.081Z,70.18
2018-05-17T05:23:46.238Z,69.80
2018-05-17T05:24:46.372Z,70.28
2018-05-17T05:25:46.509Z,70.18
2018-05-17T05:26:46.651Z,69.89
2018-05-17T05:27:46.808Z,70.18
2018-05-17T05:28:46.943Z,70.09
2018-05-17T05:29:47.080Z,69.89
2018-05-17T05:30:47.246Z,70.18
2018-05-17T05:31:47.382Z,69.51
2018-05-17T05:32:48.133Z,69.13
2018-05-17T05:33:47.759Z,69.42
2018-05-17T05:34:47.873Z,69.23
2018-05-17T05:35:48.011Z,69.32
2018-05-17T05:36:48.198Z,69.42
2018-05-17T05:37:48.310Z,69.51
2018-05-17T05:38:48.441Z,69.60
2018-05-17T05:39:48.578Z,69.42
2018-05-17T05:40:48.716Z,69.13
2018-05-17T05:41:48.859Z,69.51
2018-05-17T05:42:48.992Z,68.65
2018-05-17T05:43:49.126Z,68.71
2018-05-17T05:44:49.339Z,68.36
2018-05-17T05:45:49.372Z,68.36
2018-05-17T05:46:49.516Z,69.13
2018-05-17T05:47:49.660Z,69.23
2018-05-17T05:48:49.795Z,69.13
2018-05-17T05:49:49.936Z,69.03
2018-05-17T05:50:50.075Z,69.51
2018-05-17T05:51:50.292Z,68.94
2018-05-17T05:52:50.359Z,68.84
2018-05-17T05:53:50.497Z,69.32
2018-05-17T05:54:50.640Z,68.36
2018-05-17T05:55:50.777Z,68.46
2018-05-17T05:56:50.915Z,68.36
2018-05-17T05:57:51.052Z,68.17
2018-05-17T05:58:51.196Z,68.74
2018-05-17T05:59:51.332Z,68.74
2018-05-17T06:00:51.474Z,68.84
2018-05-17T06:01:51.606Z,68.65
2018-05-17T06:02:51.741Z,68.55
2018-05-17T06:03:51.880Z,68.07
2018-05-17T06:04:52.021Z,68.17
2018-05-17T06:05:52.165Z,68.17
2018-05-17T06:06:52.416Z,68.27
2018-05-17T06:07:52.415Z,68.17
2018-05-17T06:08:52.552Z,68.46
2018-05-17T06:09:52.701Z,68.17
2018-05-17T06:10:52.871Z,68.74
2018-05-17T06:11:53.006Z,68.36
2018-05-17T06:12:53.142Z,68.27
2018-05-17T06:13:53.339Z,67.69
2018-05-17T06:14:53.472Z,67.31
2018-05-17T06:15:53.617Z,68.07
2018-05-17T06:16:53.753Z,68.27
2018-05-17T06:17:53.890Z,69.60
2018-05-17T06:18:54.037Z,69.23
2018-05-17T06:19:54.176Z,69.42
2018-05-17T06:20:54.318Z,69.32
2018-05-17T06:21:54.455Z,69.42
2018-05-17T06:22:54.601Z,69.60
2018-05-17T06:23:54.776Z,69.60
2018-05-17T06:24:54.871Z,69.51
2018-05-17T06:25:55.073Z,69.42
2018-05-17T06:26:55.126Z,69.60
2018-05-17T06:27:55.266Z,69.23
2018-05-17T06:28:55.418Z,68.55
2018-05-17T06:29:55.554Z,68.84
2018-05-17T06:30:55.702Z,68.74
2018-05-17T06:31:55.837Z,68.49
2018-05-17T06:32:55.972Z,67.72
2018-05-17T06:33:56.114Z,67.25
2018-05-17T06:34:56.283Z,67.25
2018-05-17T06:35:56.417Z,67.44
2018-05-17T06:36:56.557Z,66.86
2018-05-17T06:37:56.699Z,67.34
2018-05-17T06:38:56.841Z,67.34
2018-05-17T06:39:56.989Z,67.34
2018-05-17T06:40:57.116Z,67.05
2018-05-17T06:41:57.255Z,66.48
2018-05-17T06:42:57.393Z,67.05
2018-05-17T06:43:57.631Z,66.77
2018-05-17T06:44:57.687Z,66.96
2018-05-17T06:45:57.822Z,66.38
2018-05-17T06:46:57.960Z,66.09
2018-05-17T06:47:58.126Z,65.71
2018-05-17T06:48:58.259Z,65.91
2018-05-17T06:49:58.393Z,66.58
2018-05-17T06:50:58.560Z,66.67
2018-05-17T06:51:58.780Z,66.00
2018-05-17T06:52:58.833Z,65.91
2018-05-17T06:53:58.967Z,65.33
2018-05-17T06:54:59.130Z,65.42
2018-05-17T06:55:59.270Z,66.09
2018-05-17T06:56:59.421Z,66.13
2018-05-17T06:57:59.554Z,66.38
2018-05-17T06:58:59.719Z,66.19
2018-05-17T06:59:59.854Z,66.29
2018-05-17T07:01:00.006Z,66.38
2018-05-17T07:02:00.137Z,66.09
2018-05-17T07:03:00.318Z,66.19
2018-05-17T07:04:00.458Z,66.09
2018-05-17T07:05:00.593Z,65.81
2018-05-17T07:06:00.730Z,66.09
2018-05-17T07:07:00.893Z,64.95
2018-05-17T07:08:01.027Z,64.89
2018-05-17T07:09:01.172Z,65.52
2018-05-17T07:10:01.308Z,66.58
2018-05-17T07:11:01.447Z,66.29
2018-05-17T07:12:01.590Z,65.91
2018-05-17T07:13:01.767Z,64.95
2018-05-17T07:14:01.913Z,64.37
2018-05-17T07:15:02.053Z,63.89
2018-05-17T07:16:02.190Z,63.60
2018-05-17T07:17:02.335Z,63.13
2018-05-17T07:18:02.519Z,63.54
2018-05-17T07:19:02.613Z,63.73
2018-05-17T07:20:02.749Z,63.03
2018-05-17T07:21:02.886Z,63.54
2018-05-17T07:22:03.025Z,63.35
2018-05-17T07:23:03.165Z,63.92
2018-05-17T07:24:03.307Z,64.59
2018-05-17T07:25:03.487Z,63.92
2018-05-17T07:26:03.629Z,63.35
2018-05-17T07:27:03.770Z,62.77
2018-05-17T07:28:03.920Z,63.54
2018-05-17T07:29:04.068Z,63.73
2018-05-17T07:30:04.206Z,63.92
2018-05-17T07:31:04.344Z,63.64
2018-05-17T07:32:04.483Z,63.45
2018-05-17T07:33:04.622Z,65.08
2018-05-17T07:34:04.757Z,64.89
2018-05-17T07:35:04.903Z,64.12
2018-05-17T07:36:05.044Z,64.31
2018-05-17T07:37:06.071Z,64.69
2018-05-17T07:38:05.370Z,64.79
2018-05-17T07:39:05.518Z,64.66
2018-05-17T07:40:05.659Z,64.89
2018-05-17T07:41:05.798Z,65.05
2018-05-17T07:42:05.935Z,65.62
2018-05-17T07:43:06.082Z,65.91
2018-05-17T07:44:06.223Z,66.09
2018-05-17T07:45:06.361Z,66.09
2018-05-17T07:46:06.501Z,65.91
2018-05-17T07:47:06.645Z,65.62
2018-05-17T07:48:06.777Z,65.33
2018-05-17T07:49:06.952Z,66.09
2018-05-17T07:50:07.114Z,65.23
2018-05-17T07:51:07.252Z,65.62
2018-05-17T07:52:07.489Z,66.09
2018-05-17T07:53:07.489Z,65.68
2018-05-17T07:54:07.622Z,65.78
2018-05-17T07:55:07.770Z,66.54
2018-05-17T07:56:07.909Z,66.86
2018-05-17T07:57:08.054Z,66.00
2018-05-17T07:58:08.192Z,65.62
2018-05-17T07:59:08.335Z,65.62
2018-05-17T08:00:08.478Z,65.71
2018-05-17T08:01:08.625Z,65.33
2018-05-17T08:02:08.763Z,65.91
2018-05-17T08:03:08.909Z,66.09
2018-05-17T08:04:09.052Z,65.05
2018-05-17T08:05:09.205Z,63.99
2018-05-17T08:06:09.339Z,64.66
2018-05-17T08:07:09.477Z,64.76
2018-05-17T08:08:09.621Z,65.05
2018-05-17T08:09:09.759Z,64.85
2018-05-17T08:10:09.894Z,64.76
2018-05-17T08:11:10.034Z,64.76
2018-05-17T08:12:10.208Z,64.09
2018-05-17T08:13:10.337Z,63.51
2018-05-17T08:14:10.473Z,64.09
2018-05-17T08:15:10.615Z,64.47
2018-05-17T08:16:10.748Z,64.28
2018-05-17T08:17:10.885Z,63.32
2018-05-17T08:18:11.023Z,63.22
2018-05-17T08:19:11.164Z,63.32
2018-05-17T08:20:11.328Z,63.51
2018-05-17T08:21:11.439Z,63.32
2018-05-17T08:22:11.592Z,63.99
2018-05-17T08:23:11.723Z,63.32
2018-05-17T08:24:11.899Z,62.74
2018-05-17T08:25:12.033Z,62.46
2018-05-17T08:26:12.255Z,63.03
2018-05-17T08:27:12.310Z,63.03
2018-05-17T08:28:12.462Z,63.60
2018-05-17T08:29:12.593Z,63.80
2018-05-17T08:30:12.735Z,63.42
2018-05-17T08:31:12.903Z,63.13
2018-05-17T08:32:13.043Z,62.26
2018-05-17T08:33:13.187Z,62.74
2018-05-17T08:34:13.355Z,63.22
2018-05-17T08:35:13.490Z,63.64
2018-05-17T08:36:13.764Z,62.39
2018-05-17T08:37:13.788Z,62.65
2018-05-17T08:38:13.947Z,62.84
2018-05-17T08:39:14.079Z,62.77
2018-05-17T08:40:14.221Z,62.77
2018-05-17T08:41:14.370Z,62.68
2018-05-17T08:42:14.532Z,63.45
2018-05-17T08:43:14.670Z,62.49
2018-05-17T08:44:14.803Z,62.59
2018-05-17T08:45:14.951Z,63.26
2018-05-17T08:46:15.102Z,63.45
2018-05-17T08:47:15.234Z,63.54
2018-05-17T08:48:15.370Z,62.96
2018-05-17T08:49:15.515Z,62.68
2018-05-17T08:50:15.663Z,62.10
2018-05-17T08:51:15.819Z,62.10
2018-05-17T08:52:15.961Z,62.30
2018-05-17T08:53:16.099Z,62.30
2018-05-17T08:54:16.302Z,63.35
2018-05-17T08:55:16.404Z,62.68
2018-05-17T08:56:16.544Z,62.01
2018-05-17T08:57:16.686Z,62.68
2018-05-17T08:58:16.848Z,61.24
2018-05-17T08:59:16.989Z,60.86
2018-05-17T09:00:17.128Z,61.72
2018-05-17T09:01:17.284Z,62.30
2018-05-17T09:02:17.423Z,61.94
2018-05-17T09:03:17.574Z,61.75
2018-05-17T09:04:17.708Z,61.75
2018-05-17T09:05:17.850Z,61.75
2018-05-17T09:06:18.026Z,60.31
2018-05-17T09:07:18.152Z,59.74
2018-05-17T09:08:18.286Z,59.64
2018-05-17T09:09:18.422Z,60.50
2018-05-17T09:10:18.563Z,60.12
2018-05-17T09:11:18.702Z,60.22
2018-05-17T09:12:19.581Z,59.55
2018-05-17T09:13:19.012Z,59.83
2018-05-17T09:14:19.139Z,58.39
2018-05-17T09:15:19.334Z,58.78
2018-05-17T09:16:19.475Z,58.87
2018-05-17T09:17:19.615Z,59.42
2018-05-17T09:18:19.755Z,59.23
2018-05-17T09:19:19.903Z,59.52
2018-05-17T09:20:20.069Z,61.53
2018-05-17T09:21:20.175Z,61.82
2018-05-17T09:22:20.319Z,62.87
2018-05-17T09:23:20.462Z,63.64
2018-05-17T09:24:20.604Z,62.59
2018-05-17T09:25:20.739Z,61.24
2018-05-17T09:26:20.880Z,60.86
2018-05-17T09:27:21.036Z,60.41
2018-05-17T09:28:21.169Z,60.31
2018-05-17T09:29:21.308Z,60.79
2018-05-17T09:30:22.085Z,61.27
2018-05-17T09:31:21.637Z,61.66
2018-05-17T09:32:21.769Z,61.37
2018-05-17T09:33:21.912Z,60.22
2018-05-17T09:34:22.055Z,60.03
2018-05-17T09:35:22.197Z,60.41
2018-05-17T09:36:22.339Z,59.36
2018-05-17T09:37:22.486Z,59.26
2018-05-17T09:38:22.630Z,59.67
2018-05-17T09:39:22.778Z,59.86
2018-05-17T09:40:22.930Z,59.29
2018-05-17T09:41:23.079Z,59.86
2018-05-17T09:42:23.253Z,60.25
2018-05-17T09:43:23.285Z,61.69
2018-05-17T09:44:23.422Z,61.30
2018-05-17T09:45:23.561Z,60.79
2018-05-17T09:46:23.703Z,61.40
2018-05-17T09:47:23.848Z,60.53
2018-05-17T09:48:23.988Z,59.09
2018-05-17T09:49:24.124Z,57.95
2018-05-17T09:50:24.272Z,58.04
2018-05-17T09:51:24.411Z,58.62
2018-05-17T09:52:24.556Z,57.65
2018-05-17T09:53:24.712Z,57.68
2018-05-17T09:54:24.860Z,57.59
2018-05-17T09:55:24.997Z,58.74
2018-05-17T09:56:25.135Z,58.36
2018-05-17T09:57:25.312Z,58.07
2018-05-17T09:58:25.450Z,57.68
2018-05-17T09:59:25.591Z,58.84
2018-05-17T10:00:25.732Z,59.22
2018-05-17T10:01:25.894Z,60.38
2018-05-17T10:02:26.033Z,61.33
2018-05-17T10:03:26.172Z,60.47
2018-05-17T10:04:26.312Z,59.12
2018-05-17T10:05:26.469Z,60.47
2018-05-17T10:06:26.603Z,61.05
2018-05-17T10:07:26.745Z,59.99
2018-05-17T10:08:26.886Z,58.45
2018-05-17T10:09:27.049Z,58.48
2018-05-17T10:10:27.189Z,58.29
2018-05-17T10:11:27.331Z,58.87
2018-05-17T10:12:27.502Z,58.67
2018-05-17T10:13:27.632Z,58.39
2018-05-17T10:14:27.770Z,58.74
2018-05-17T10:15:27.935Z,58.74
2018-05-17T10:16:28.082Z,59.32
2018-05-17T10:17:28.202Z,59.80
2018-05-17T10:18:28.349Z,58.36
2018-05-17T10:19:28.484Z,56.73
2018-05-17T10:20:28.703Z,57.68
2018-05-17T10:21:28.770Z,57.01
2018-05-17T10:22:28.924Z,57.68
2018-05-17T10:23:29.061Z,56.53
2018-05-17T10:24:29.213Z,56.82
2018-05-17T10:25:29.362Z,56.05
2018-05-17T10:26:29.498Z,55.96
2018-05-17T10:27:29.637Z,57.30
2018-05-17T10:28:29.818Z,56.15
2018-05-17T10:29:29.955Z,55.47
2018-05-17T10:30:30.089Z,55.60
2018-05-17T10:31:30.265Z,55.51
2018-05-17T10:32:30.401Z,55.00
2018-05-17T10:33:30.540Z,54.74
2018-05-17T10:34:30.680Z,54.74
2018-05-17T10:35:30.844Z,54.74
2018-05-17T10:36:30.988Z,54.83
2018-05-17T10:37:31.142Z,55.51
2018-05-17T10:38:31.370Z,54.06
2018-05-17T10:39:31.404Z,53.58
2018-05-17T10:40:31.609Z,54.25
2018-05-17T10:41:31.664Z,53.78
2018-05-17T10:42:31.781Z,54.35
2018-05-17T10:43:31.916Z,54.93
2018-05-17T10:44:32.082Z,55.51
2018-05-17T10:45:32.223Z,55.34
2018-05-17T10:46:32.363Z,55.15
2018-05-17T10:47:32.531Z,54.38
2018-05-17T10:48:32.671Z,55.15
2018-05-17T10:49:32.807Z,54.67
2018-05-17T10:50:32.951Z,54.57
2018-05-17T10:51:33.117Z,54.19
2018-05-17T10:52:33.251Z,53.90
2018-05-17T10:53:33.388Z,54.09
2018-05-17T10:54:33.606Z,53.23
2018-05-17T10:55:33.703Z,52.55
2018-05-17T10:56:33.835Z,53.03
2018-05-17T10:57:33.979Z,53.90
2018-05-17T10:58:34.119Z,53.90
2018-05-17T10:59:34.255Z,52.94
2018-05-17T11:00:34.397Z,52.68
2018-05-17T11:01:34.562Z,52.58
2018-05-17T11:02:34.774Z,53.64
2018-05-17T11:03:34.844Z,54.41
2018-05-17T11:04:34.986Z,53.74
2018-05-17T11:05:35.122Z,53.25
2018-05-17T11:06:35.303Z,55.66
2018-05-17T11:07:35.406Z,56.33
2018-05-17T11:08:35.545Z,55.94
2018-05-17T11:09:35.680Z,54.99
2018-05-17T11:10:35.843Z,57.58
2018-05-17T11:11:35.988Z,58.06
2018-05-17T11:12:36.129Z,58.54
2018-05-17T11:13:36.263Z,55.76
2018-05-17T11:14:36.407Z,55.08
2018-05-17T11:15:36.549Z,54.31
2018-05-17T11:16:36.688Z,54.50
2018-05-17T11:17:36.831Z,54.69
2018-05-17T11:18:36.972Z,54.60
2018-05-17T11:19:37.121Z,54.43
2018-05-17T11:20:37.251Z,55.27
2018-05-17T11:21:37.388Z,55.20
2018-05-17T11:22:37.522Z,54.02
2018-05-17T11:23:37.668Z,53.35
2018-05-17T11:24:37.816Z,52.10
2018-05-17T11:25:37.961Z,51.72
2018-05-17T11:26:38.101Z,52.97
2018-05-17T11:27:38.265Z,54.31
2018-05-17T11:28:38.382Z,53.83
2018-05-17T11:29:38.528Z,53.74
2018-05-17T11:30:38.661Z,53.54
2018-05-17T11:31:38.811Z,54.02
2018-05-17T11:32:38.954Z,54.50
2018-05-17T11:33:39.104Z,52.97
2018-05-17T11:34:39.240Z,52.39
2018-05-17T11:35:39.385Z,52.97
2018-05-17T11:36:39.548Z,52.87
2018-05-17T11:37:39.684Z,52.48
2018-05-17T11:38:39.827Z,52.20
2018-05-17T11:39:39.966Z,51.33
2018-05-17T11:40:40.105Z,51.04
2018-05-17T11:41:40.247Z,50.37
2018-05-17T11:42:40.393Z,50.66
2018-05-17T11:43:40.535Z,51.91
2018-05-17T11:44:40.680Z,52.20
2018-05-17T11:45:40.820Z,52.77
2018-05-17T11:46:40.974Z,52.58
2018-05-17T11:47:41.115Z,51.81
2018-05-17T11:48:41.274Z,52.20
2018-05-17T11:49:41.433Z,52.87
2018-05-17T11:50:41.581Z,52.48
2018-05-17T11:51:42.621Z,51.81
2018-05-17T11:52:41.913Z,52.29
2018-05-17T11:53:42.055Z,52.51
2018-05-17T11:54:42.190Z,52.51
2018-05-17T11:55:42.334Z,51.17
2018-05-17T11:56:42.474Z,50.68
2018-05-17T11:57:42.618Z,49.24
2018-05-17T11:58:42.758Z,48.38
2018-05-17T11:59:42.911Z,48.97
2018-05-17T12:00:43.058Z,47.72
2018-05-17T12:01:43.206Z,47.53
2018-05-17T12:02:43.383Z,47.82
2018-05-17T12:03:43.503Z,48.11
2018-05-17T12:04:43.659Z,50.42
2018-05-17T12:05:43.815Z,49.96
2018-05-17T12:06:43.958Z,51.12
2018-05-17T12:07:44.097Z,48.71
2018-05-17T12:08:44.273Z,47.17
2018-05-17T12:09:44.399Z,46.88
2018-05-17T12:10:44.548Z,47.75
2018-05-17T12:11:44.740Z,48.90
2018-05-17T12:12:44.864Z,48.90
2018-05-17T12:13:45.011Z,49.68
2018-05-17T12:14:45.196Z,51.02
2018-05-17T12:15:45.306Z,49.10
2018-05-17T12:16:45.448Z,48.52
2018-05-17T12:17:45.588Z,47.85
2018-05-17T12:18:45.740Z,49.19
2018-05-17T12:19:45.904Z,48.90
2018-05-17T12:20:46.048Z,47.49
2018-05-17T12:21:46.189Z,47.97
2018-05-17T12:22:46.330Z,48.93
2018-05-17T12:23:46.470Z,48.83
2018-05-17T12:24:46.612Z,47.97
2018-05-17T12:25:46.755Z,46.62
2018-05-17T12:26:46.911Z,46.71
2018-05-17T12:27:47.069Z,46.81
2018-05-17T12:28:47.217Z,47.19
2018-05-17T12:29:47.355Z,46.81
2018-05-17T12:30:47.517Z,46.83
2018-05-17T12:31:47.747Z,45.87
2018-05-17T12:32:47.990Z,46.06
2018-05-17T12:33:47.926Z,46.55
2018-05-17T12:34:48.060Z,48.08
2018-05-17T12:35:48.206Z,47.12
2018-05-17T12:36:48.347Z,46.55
2018-05-17T12:37:48.491Z,45.77
2018-05-17T12:38:48.632Z,45.58
2018-05-17T12:39:48.787Z,47.03
2018-05-17T12:40:48.932Z,46.45
2018-05-17T12:41:49.070Z,46.93
2018-05-17T12:42:49.322Z,47.51
2018-05-17T12:43:49.414Z,48.47
2018-05-17T12:44:49.552Z,47.89
2018-05-17T12:45:49.698Z,47.03
2018-05-17T12:46:49.850Z,45.97
2018-05-17T12:47:50.057Z,45.77
2018-05-17T12:48:50.137Z,45.94
2018-05-17T12:49:50.280Z,46.55
2018-05-17T12:50:50.455Z,47.12
2018-05-17T12:51:50.575Z,47.22
2018-05-17T12:52:50.715Z,47.89
2018-05-17T12:53:50.858Z,47.89
2018-05-17T12:54:51.016Z,47.03
2018-05-17T12:55:51.160Z,46.45
2018-05-17T12:56:51.314Z,47.60
2018-05-17T12:57:51.453Z,47.80